Time;durP1;ratioP1;P1;durP2;ratioP2;P2;SDS_P1;SDS_P2;PMS_P1;PMS_P2;Temp;Humidity;BMP_temperature;BMP_pressure;BME280_temperature;BME280_humidity;BME280_pressure;Samples;Min_cycle;Max_cycle;Signal;HPM_P1;HPM_P2
2022/03/26 00:00:30;;;;;;;34.00;22.20;;;;;;;;;;5073743;28;20450;-75
2022/03/26 00:02:58;;;;;;;32.93;21.50;;;;;;;;;;5091954;28;20459;-77
2022/03/26 00:05:25;;;;;;;31.80;19.20;;;;;;;;;;5087278;28;20460;-74
2022/03/26 00:07:52;;;;;;;30.50;20.03;;;;;;;;;;5078136;28;20440;-75
2022/03/26 00:10:19;;;;;;;30.73;19.90;;;;;;;;;;5079068;28;20435;-74
2022/03/26 00:12:48;;;;;;;35.33;21.13;;;;;;;;;;5089861;28;20463;-76
2022/03/26 00:15:15;;;;;;;30.83;20.27;;;;;;;;;;5091134;28;20204;-76
2022/03/26 00:17:42;;;;;;;30.88;20.23;;;;;;;;;;5091305;28;20833;-74
2022/03/26 00:20:10;;;;;;;29.88;20.33;;;;;;;;;;5091895;28;20205;-76
2022/03/26 00:22:37;;;;;;;30.73;20.27;;;;;;;;;;5087001;28;20236;-76
2022/03/26 00:25:05;;;;;;;32.88;20.88;;;;;;;;;;5072885;28;20198;-75
2022/03/26 00:27:33;;;;;;;36.72;20.85;;;;;;;;;;5072912;28;20201;-75
2022/03/26 00:30:03;;;;;;;31.80;20.67;;;;;;;;;;5076957;28;20280;-75
2022/03/26 00:32:31;;;;;;;31.15;20.58;;;;;;;;;;5078346;28;20231;-74
2022/03/26 00:34:58;;;;;;;32.92;21.23;;;;;;;;;;5088624;28;20835;-77
2022/03/26 00:37:25;;;;;;;30.83;20.35;;;;;;;;;;5091295;28;20224;-77
2022/03/26 00:39:52;;;;;;;29.95;20.27;;;;;;;;;;5090863;28;20203;-75
2022/03/26 00:42:20;;;;;;;30.55;21.35;;;;;;;;;;5091037;28;20217;-76
2022/03/26 00:44:47;;;;;;;31.17;20.15;;;;;;;;;;5088463;28;20197;-76
2022/03/26 00:47:15;;;;;;;30.95;20.60;;;;;;;;;;5072750;28;20244;-77
2022/03/26 00:49:43;;;;;;;26.00;19.55;;;;;;;;;;5072720;28;20206;-76
2022/03/26 00:52:10;;;;;;;29.80;20.13;;;;;;;;;;5075546;28;20251;-75
2022/03/26 00:54:37;;;;;;;26.52;19.95;;;;;;;;;;5077816;28;20656;-76
2022/03/26 00:57:04;;;;;;;29.08;20.55;;;;;;;;;;5085234;28;20209;-75
2022/03/26 00:59:31;;;;;;;35.53;20.90;;;;;;;;;;5090288;28;20204;-75
2022/03/26 01:01:59;;;;;;;33.67;19.10;;;;;;;;;;5090527;28;20249;-76
2022/03/26 01:04:27;;;;;;;29.83;19.80;;;;;;;;;;5090663;28;20198;-75
2022/03/26 01:06:54;;;;;;;34.08;21.45;;;;;;;;;;5091812;28;20201;-77
2022/03/26 01:09:21;;;;;;;28.83;19.50;;;;;;;;;;5073321;28;20194;-75
2022/03/26 01:11:48;;;;;;;34.28;22.00;;;;;;;;;;5072402;28;20206;-75
2022/03/26 01:14:16;;;;;;;32.53;20.52;;;;;;;;;;5074247;28;20556;-76
2022/03/26 01:16:43;;;;;;;31.65;19.33;;;;;;;;;;5077770;28;20201;-76
2022/03/26 01:19:10;;;;;;;30.08;19.98;;;;;;;;;;5082625;28;20695;-76
2022/03/26 01:21:39;;;;;;;33.90;21.30;;;;;;;;;;5090155;28;20412;-75
2022/03/26 01:24:06;;;;;;;29.88;19.55;;;;;;;;;;5090152;28;20200;-75
2022/03/26 01:26:34;;;;;;;26.58;19.60;;;;;;;;;;5090418;28;20562;-76
2022/03/26 01:29:01;;;;;;;30.80;19.35;;;;;;;;;;5073299;28;20197;-76
2022/03/26 01:31:29;;;;;;;34.22;19.30;;;;;;;;;;5076268;28;20205;-74
2022/03/26 01:33:56;;;;;;;28.02;20.20;;;;;;;;;;5075530;28;20267;-75
2022/03/26 01:36:23;;;;;;;29.98;21.33;;;;;;;;;;5081068;28;20197;-74
2022/03/26 01:38:51;;;;;;;35.33;20.85;;;;;;;;;;5089383;28;20217;-76
2022/03/26 01:41:20;;;;;;;30.70;20.13;;;;;;;;;;5089342;28;20219;-74
2022/03/26 01:43:47;;;;;;;31.55;21.92;;;;;;;;;;5090094;28;20209;-73
2022/03/26 01:46:14;;;;;;;38.22;22.63;;;;;;;;;;5090780;28;20197;-76
2022/03/26 01:48:41;;;;;;;30.73;20.55;;;;;;;;;;5079530;28;20230;-77
2022/03/26 01:51:16;;;;;;;30.85;20.83;;;;;;;;;;5072091;28;20209;-76
2022/03/26 01:53:45;;;;;;;32.03;20.30;;;;;;;;;;5055773;28;20600;-76
2022/03/26 01:56:14;;;;;;;39.05;20.95;;;;;;;;;;5077559;28;20246;-75
2022/03/26 01:58:42;;;;;;;29.50;21.00;;;;;;;;;;5075286;28;20218;-76
2022/03/26 02:01:09;;;;;;;32.20;21.80;;;;;;;;;;5068578;28;20202;-76
2022/03/26 02:03:36;;;;;;;33.38;22.10;;;;;;;;;;5069683;28;20225;-74
2022/03/26 02:06:04;;;;;;;34.38;21.58;;;;;;;;;;5069821;28;20198;-77
2022/03/26 02:08:31;;;;;;;30.67;20.83;;;;;;;;;;5051044;28;20190;-75
2022/03/26 02:10:58;;;;;;;31.10;19.98;;;;;;;;;;5073096;28;20200;-76
2022/03/26 02:13:27;;;;;;;30.38;20.38;;;;;;;;;;5076234;28;20210;-75
2022/03/26 02:15:54;;;;;;;31.38;20.50;;;;;;;;;;5075369;28;20202;-75
2022/03/26 02:18:21;;;;;;;29.67;20.27;;;;;;;;;;5080414;28;20214;-75
2022/03/26 02:20:50;;;;;;;30.63;21.40;;;;;;;;;;5081106;28;20201;-74
2022/03/26 02:23:17;;;;;;;34.47;22.63;;;;;;;;;;5093008;28;20587;-75
2022/03/26 02:25:45;;;;;;;33.80;23.27;;;;;;;;;;5093338;28;20205;-76
2022/03/26 02:28:13;;;;;;;33.45;21.77;;;;;;;;;;5092941;28;20204;-75
2022/03/26 02:30:40;;;;;;;32.92;20.38;;;;;;;;;;5093816;28;20197;-74
2022/03/26 02:33:07;;;;;;;33.17;21.55;;;;;;;;;;5082129;28;20234;-74
2022/03/26 02:35:34;;;;;;;32.33;21.00;;;;;;;;;;5076066;28;20190;-74
2022/03/26 02:38:03;;;;;;;33.25;19.38;;;;;;;;;;5081020;28;20202;-76
2022/03/26 02:40:30;;;;;;;29.55;20.15;;;;;;;;;;5090944;28;20206;-76
2022/03/26 02:42:57;;;;;;;32.20;21.23;;;;;;;;;;5092459;28;20221;-75
2022/03/26 02:45:24;;;;;;;33.38;21.00;;;;;;;;;;5093105;28;20204;-76
2022/03/26 02:47:52;;;;;;;34.70;20.98;;;;;;;;;;5093599;28;20194;-75
2022/03/26 02:50:19;;;;;;;32.13;20.63;;;;;;;;;;5089531;28;20555;-75
2022/03/26 02:52:50;;;;;;;32.78;21.63;;;;;;;;;;5080263;28;20232;-74
2022/03/26 02:55:19;;;;;;;34.22;20.80;;;;;;;;;;5078765;28;20186;-77
2022/03/26 02:57:46;;;;;;;35.97;21.65;;;;;;;;;;5072358;28;20214;-75
2022/03/26 03:00:14;;;;;;;37.00;22.20;;;;;;;;;;5072467;28;20284;-74
2022/03/26 03:02:42;;;;;;;32.70;21.08;;;;;;;;;;5072746;28;20280;-74
2022/03/26 03:05:09;;;;;;;28.50;19.75;;;;;;;;;;5073190;28;20202;-74
2022/03/26 03:07:37;;;;;;;31.85;20.92;;;;;;;;;;5073217;28;20564;-74
2022/03/26 03:10:05;;;;;;;30.02;20.40;;;;;;;;;;5074399;28;20544;-74
2022/03/26 03:12:33;;;;;;;36.35;22.38;;;;;;;;;;5079756;28;20221;-76
2022/03/26 03:15:00;;;;;;;32.83;22.35;;;;;;;;;;5078854;28;20194;-76
2022/03/26 03:17:27;;;;;;;36.00;21.45;;;;;;;;;;5071615;28;20208;-74
2022/03/26 03:19:55;;;;;;;30.27;21.30;;;;;;;;;;5072065;28;20248;-75
2022/03/26 03:22:22;;;;;;;32.55;21.83;;;;;;;;;;5071314;28;20226;-76
2022/03/26 03:24:49;;;;;;;33.83;23.20;;;;;;;;;;5072660;28;20201;-74
2022/03/26 03:27:16;;;;;;;36.17;23.08;;;;;;;;;;5072739;28;20209;-74
2022/03/26 03:29:45;;;;;;;35.30;20.92;;;;;;;;;;5074008;28;20194;-74
2022/03/26 03:32:12;;;;;;;32.80;20.75;;;;;;;;;;5074213;28;20238;-72
2022/03/26 03:34:39;;;;;;;31.02;20.83;;;;;;;;;;5079292;28;20198;-74
2022/03/26 03:37:06;;;;;;;33.45;21.25;;;;;;;;;;5078255;28;20194;-73
2022/03/26 03:39:34;;;;;;;33.83;21.60;;;;;;;;;;5071266;28;20543;-75
2022/03/26 03:42:02;;;;;;;38.53;21.48;;;;;;;;;;5071794;28;20213;-73
2022/03/26 03:44:29;;;;;;;32.25;21.15;;;;;;;;;;5071975;28;20198;-76
2022/03/26 03:46:57;;;;;;;32.85;23.30;;;;;;;;;;5072068;28;20366;-75
2022/03/26 03:49:26;;;;;;;37.95;23.20;;;;;;;;;;5072354;28;20205;-75
2022/03/26 03:51:54;;;;;;;32.53;22.50;;;;;;;;;;5073826;28;20218;-75
2022/03/26 03:54:21;;;;;;;31.95;21.88;;;;;;;;;;5073840;28;20198;-74
2022/03/26 03:56:48;;;;;;;35.90;22.92;;;;;;;;;;5079083;28;20191;-74
2022/03/26 03:59:15;;;;;;;38.28;21.80;;;;;;;;;;5079867;28;20236;-75
2022/03/26 04:01:42;;;;;;;30.50;21.33;;;;;;;;;;5090961;28;20216;-75
2022/03/26 04:04:11;;;;;;;35.50;22.58;;;;;;;;;;5091189;28;20201;-75
2022/03/26 04:06:38;;;;;;;34.15;22.02;;;;;;;;;;5091554;28;20242;-73
2022/03/26 04:09:05;;;;;;;34.33;21.27;;;;;;;;;;5074102;28;20562;-75
2022/03/26 04:11:33;;;;;;;35.30;22.20;;;;;;;;;;5084849;28;20204;-75
2022/03/26 04:14:00;;;;;;;38.13;23.98;;;;;;;;;;5073254;28;20209;-74
2022/03/26 04:16:27;;;;;;;38.88;24.98;;;;;;;;;;5072946;28;20209;-73
2022/03/26 04:18:54;;;;;;;40.65;25.05;;;;;;;;;;5077726;28;20679;-75
2022/03/26 04:21:22;;;;;;;37.40;25.70;;;;;;;;;;5078729;28;20535;-74
2022/03/26 04:23:49;;;;;;;40.08;25.02;;;;;;;;;;5089941;28;20236;-74
2022/03/26 04:26:17;;;;;;;36.67;23.90;;;;;;;;;;5091091;28;20200;-73
2022/03/26 04:28:44;;;;;;;37.83;23.52;;;;;;;;;;5091151;28;20250;-74
2022/03/26 04:31:11;;;;;;;34.78;23.27;;;;;;;;;;5091391;28;20194;-74
2022/03/26 04:33:38;;;;;;;40.30;24.88;;;;;;;;;;5086513;28;20308;-75
2022/03/26 04:36:05;;;;;;;37.60;23.20;;;;;;;;;;5072785;28;20202;-76
2022/03/26 04:38:34;;;;;;;36.45;23.63;;;;;;;;;;5072676;28;20220;-75
2022/03/26 04:41:01;;;;;;;38.03;24.80;;;;;;;;;;5076348;28;20190;-75
2022/03/26 04:43:28;;;;;;;41.67;25.65;;;;;;;;;;5078512;28;20690;-75
2022/03/26 04:45:56;;;;;;;39.10;24.95;;;;;;;;;;5072656;28;20198;-75
2022/03/26 04:48:23;;;;;;;35.83;24.42;;;;;;;;;;5070661;28;20561;-74
2022/03/26 04:50:51;;;;;;;37.97;25.08;;;;;;;;;;5070861;28;20627;-74
2022/03/26 04:53:18;;;;;;;35.50;23.77;;;;;;;;;;5070729;28;20760;-75
2022/03/26 04:55:46;;;;;;;40.05;24.25;;;;;;;;;;5070793;28;20200;-75
2022/03/26 04:58:14;;;;;;;37.10;24.48;;;;;;;;;;5072239;28;20194;-76
2022/03/26 05:00:41;;;;;;;39.88;24.27;;;;;;;;;;5072661;28;20284;-75
2022/03/26 05:03:08;;;;;;;36.40;24.20;;;;;;;;;;5074584;28;20263;-75
2022/03/26 05:05:35;;;;;;;39.70;23.67;;;;;;;;;;5060367;28;20194;-76
2022/03/26 05:08:03;;;;;;;41.40;24.92;;;;;;;;;;5083645;28;20218;-74
2022/03/26 05:10:31;;;;;;;37.55;22.42;;;;;;;;;;5090520;28;20345;-76
2022/03/26 05:13:00;;;;;;;41.58;24.63;;;;;;;;;;5090053;28;20221;-74
2022/03/26 05:15:28;;;;;;;37.33;24.05;;;;;;;;;;5090698;28;20204;-74
2022/03/26 05:17:56;;;;;;;42.90;26.80;;;;;;;;;;5091223;28;20197;-75
2022/03/26 05:20:23;;;;;;;40.75;24.83;;;;;;;;;;5075502;28;20218;-74
2022/03/26 05:22:51;;;;;;;38.42;23.63;;;;;;;;;;5072137;28;20217;-74
2022/03/26 05:25:18;;;;;;;37.90;24.75;;;;;;;;;;5055563;28;20197;-74
2022/03/26 05:27:46;;;;;;;38.60;24.73;;;;;;;;;;5060055;28;20201;-75
2022/03/26 05:30:15;;;;;;;37.95;22.83;;;;;;;;;;5075787;28;20196;-74
2022/03/26 05:32:42;;;;;;;36.95;21.35;;;;;;;;;;5052291;28;20460;-75
2022/03/26 05:35:13;;;;;;;39.72;22.52;;;;;;;;;;5070925;28;20194;-75
2022/03/26 05:37:41;;;;;;;37.80;23.60;;;;;;;;;;5070408;28;20288;-75
2022/03/26 05:40:08;;;;;;;36.75;22.45;;;;;;;;;;5070199;28;20221;-75
2022/03/26 05:42:36;;;;;;;36.50;22.80;;;;;;;;;;5070920;28;20721;-75
2022/03/26 05:45:03;;;;;;;34.22;24.02;;;;;;;;;;5074254;28;20255;-75
2022/03/26 05:47:32;;;;;;;36.15;23.25;;;;;;;;;;5076196;28;20201;-75
2022/03/26 05:49:59;;;;;;;39.38;24.33;;;;;;;;;;5082130;28;20186;-74
2022/03/26 05:52:26;;;;;;;36.17;24.45;;;;;;;;;;5082469;28;20217;-74
2022/03/26 05:54:53;;;;;;;35.95;22.73;;;;;;;;;;5075656;28;20208;-76
2022/03/26 05:57:20;;;;;;;34.20;22.40;;;;;;;;;;5093987;28;20650;-75
2022/03/26 05:59:48;;;;;;;37.70;25.55;;;;;;;;;;5094024;28;20217;-74
2022/03/26 06:02:15;;;;;;;37.92;25.40;;;;;;;;;;5094862;28;20576;-76
2022/03/26 06:04:44;;;;;;;36.90;22.77;;;;;;;;;;5086924;28;20201;-76
2022/03/26 06:07:12;;;;;;;38.47;23.27;;;;;;;;;;5075729;28;20285;-75
2022/03/26 06:09:39;;;;;;;34.25;24.08;;;;;;;;;;5075712;28;20655;-73
2022/03/26 06:12:08;;;;;;;39.05;24.70;;;;;;;;;;5080631;28;20303;-75
2022/03/26 06:14:35;;;;;;;40.30;24.42;;;;;;;;;;5080251;28;20194;-74
2022/03/26 06:17:02;;;;;;;40.65;23.25;;;;;;;;;;5091536;28;20190;-74
2022/03/26 06:19:29;;;;;;;40.42;25.70;;;;;;;;;;5093133;28;20282;-74
2022/03/26 06:21:58;;;;;;;36.15;26.13;;;;;;;;;;5093468;28;20220;-74
2022/03/26 06:24:25;;;;;;;41.08;25.77;;;;;;;;;;5092793;28;20197;-76
2022/03/26 06:26:52;;;;;;;36.53;24.42;;;;;;;;;;5084253;28;20665;-78
2022/03/26 06:29:19;;;;;;;44.25;24.65;;;;;;;;;;5080842;28;20226;-75
2022/03/26 06:31:47;;;;;;;39.33;24.35;;;;;;;;;;5082201;28;20194;-74
2022/03/26 06:34:15;;;;;;;34.92;23.75;;;;;;;;;;5092402;28;20255;-77
2022/03/26 06:36:42;;;;;;;36.95;23.02;;;;;;;;;;5092875;28;20201;-74
2022/03/26 06:39:11;;;;;;;34.47;22.65;;;;;;;;;;5093386;28;20221;-77
2022/03/26 06:41:39;;;;;;;35.63;22.63;;;;;;;;;;5093339;28;20224;-77
2022/03/26 06:44:08;;;;;;;32.80;22.83;;;;;;;;;;5083455;28;20202;-76
2022/03/26 06:46:35;;;;;;;32.03;21.50;;;;;;;;;;5080756;28;20836;-77
2022/03/26 06:49:03;;;;;;;36.70;23.00;;;;;;;;;;5064258;28;20516;-80
2022/03/26 06:51:31;;;;;;;37.13;22.77;;;;;;;;;;5092227;28;20479;-77
2022/03/26 06:53:58;;;;;;;34.00;22.73;;;;;;;;;;5093038;28;20828;-78
2022/03/26 06:56:27;;;;;;;27.73;21.23;;;;;;;;;;5092772;28;20443;-77
2022/03/26 06:58:55;;;;;;;38.07;24.23;;;;;;;;;;5093474;28;20922;-77
2022/03/26 07:01:22;;;;;;;33.83;22.83;;;;;;;;;;5085174;28;20511;-78
2022/03/26 07:03:49;;;;;;;30.60;21.20;;;;;;;;;;5074489;28;20460;-79
2022/03/26 07:06:19;;;;;;;36.27;23.00;;;;;;;;;;5074373;28;20444;-81
2022/03/26 07:08:48;;;;;;;28.03;20.87;;;;;;;;;;5078493;28;20458;-79
2022/03/26 07:11:16;;;;;;;34.60;24.93;;;;;;;;;;5062831;28;20515;-82
2022/03/26 07:13:44;;;;;;;32.67;21.50;;;;;;;;;;5089945;28;20455;-78
2022/03/26 07:16:12;;;;;;;37.07;25.00;;;;;;;;;;5092372;28;20444;-79
2022/03/26 07:18:39;;;;;;;31.27;21.20;;;;;;;;;;5092795;28;20450;-80
2022/03/26 07:21:08;;;;;;;32.47;21.57;;;;;;;;;;5093272;28;20447;-80
2022/03/26 07:23:35;;;;;;;28.37;20.67;;;;;;;;;;5090225;28;20463;-73
2022/03/26 07:26:03;;;;;;;32.10;21.97;;;;;;;;;;5074294;28;20505;-79
2022/03/26 07:28:31;;;;;;;31.07;22.10;;;;;;;;;;5074263;28;20483;-78
2022/03/26 07:30:59;;;;;;;30.10;20.93;;;;;;;;;;5076424;28;20432;-76
2022/03/26 07:33:27;;;;;;;29.33;20.60;;;;;;;;;;5079211;28;20467;-75
2022/03/26 07:35:54;;;;;;;30.20;21.53;;;;;;;;;;5086276;28;20450;-78
2022/03/26 07:38:21;;;;;;;36.37;24.30;;;;;;;;;;5092177;28;20450;-78
2022/03/26 07:40:49;;;;;;;29.83;21.93;;;;;;;;;;5074087;28;20475;-80
2022/03/26 07:43:16;;;;;;;30.10;22.60;;;;;;;;;;5092035;28;20800;-78
2022/03/26 07:45:43;;;;;;;33.20;22.33;;;;;;;;;;5092744;28;20830;-79
2022/03/26 07:48:12;;;;;;;31.20;21.47;;;;;;;;;;5076397;28;20869;-75
2022/03/26 07:50:39;;;;;;;28.20;21.70;;;;;;;;;;5058681;28;20443;-77
2022/03/26 07:53:06;;;;;;;34.60;23.67;;;;;;;;;;5061462;28;20506;-75
2022/03/26 07:55:34;;;;;;;34.23;24.33;;;;;;;;;;5074174;28;20831;-76
2022/03/26 07:58:01;;;;;;;24.83;20.70;;;;;;;;;;5071648;28;20467;-76
2022/03/26 08:00:28;;;;;;;32.80;23.57;;;;;;;;;;5071661;28;20898;-78
2022/03/26 08:02:55;;;;;;;35.30;23.10;;;;;;;;;;5071493;28;20553;-75
2022/03/26 08:05:24;;;;;;;36.00;23.97;;;;;;;;;;5071839;28;20447;-76
2022/03/26 08:07:51;;;;;;;30.93;22.53;;;;;;;;;;5072223;28;20467;-75
2022/03/26 08:10:18;;;;;;;31.37;23.40;;;;;;;;;;5073012;28;20437;-78
2022/03/26 08:12:45;;;;;;;36.60;22.70;;;;;;;;;;5075257;28;20952;-77
2022/03/26 08:15:14;;;;;;;31.97;22.87;;;;;;;;;;5078541;28;20847;-77
2022/03/26 08:17:41;;;;;;;34.03;24.70;;;;;;;;;;5074178;28;20927;-77
2022/03/26 08:20:09;;;;;;;27.40;21.50;;;;;;;;;;5071020;28;20807;-76
2022/03/26 08:22:38;;;;;;;38.43;24.53;;;;;;;;;;5070673;28;20467;-74
2022/03/26 08:25:09;;;;;;;36.90;23.43;;;;;;;;;;5071231;28;20455;-82
2022/03/26 08:27:36;;;;;;;33.43;22.47;;;;;;;;;;5071434;28;20927;-77
2022/03/26 08:30:04;;;;;;;34.30;24.83;;;;;;;;;;5075764;28;20479;-77
2022/03/26 08:32:31;;;;;;;37.13;23.00;;;;;;;;;;5078503;28;20963;-77
2022/03/26 08:34:58;;;;;;;33.20;22.33;;;;;;;;;;5073138;28;20454;-79
2022/03/26 08:37:26;;;;;;;32.80;24.13;;;;;;;;;;5070926;28;20875;-79
2022/03/26 08:39:54;;;;;;;35.60;23.50;;;;;;;;;;5071043;28;20486;-79
2022/03/26 08:42:21;;;;;;;37.50;23.93;;;;;;;;;;5071188;28;20463;-77
2022/03/26 08:44:49;;;;;;;33.83;25.50;;;;;;;;;;5071351;28;20771;-80
2022/03/26 08:47:16;;;;;;;42.53;26.10;;;;;;;;;;5072506;28;20786;-78
2022/03/26 08:49:44;;;;;;;33.60;24.13;;;;;;;;;;5072607;28;20441;-74
2022/03/26 08:52:11;;;;;;;37.53;23.67;;;;;;;;;;5074353;28;20464;-75
2022/03/26 08:54:39;;;;;;;39.20;26.57;;;;;;;;;;5078328;28;20520;-76
2022/03/26 08:57:08;;;;;;;31.27;24.00;;;;;;;;;;5075157;28;20444;-77
2022/03/26 08:59:36;;;;;;;35.17;26.83;;;;;;;;;;5068204;28;20484;-77
2022/03/26 09:02:04;;;;;;;34.37;25.43;;;;;;;;;;5051884;28;20465;-73
2022/03/26 09:04:31;;;;;;;36.90;27.20;;;;;;;;;;5060786;28;20444;-76
2022/03/26 09:06:58;;;;;;;33.40;23.97;;;;;;;;;;5068037;28;20456;-73
2022/03/26 09:09:25;;;;;;;32.60;24.30;;;;;;;;;;5072223;28;20781;-74
2022/03/26 09:11:53;;;;;;;38.87;24.87;;;;;;;;;;5077920;28;20456;-78
2022/03/26 09:14:21;;;;;;;37.37;25.40;;;;;;;;;;5073657;28;20435;-77
2022/03/26 09:16:49;;;;;;;36.90;26.77;;;;;;;;;;5070267;28;20444;-76
2022/03/26 09:19:16;;;;;;;32.50;24.40;;;;;;;;;;5069483;28;20452;-75
2022/03/26 09:21:44;;;;;;;36.23;26.67;;;;;;;;;;5072949;28;20554;-77
2022/03/26 09:24:11;;;;;;;41.87;26.23;;;;;;;;;;5075324;28;20443;-79
2022/03/26 09:26:38;;;;;;;35.93;26.70;;;;;;;;;;5075592;28;20937;-76
2022/03/26 09:29:06;;;;;;;41.93;26.37;;;;;;;;;;5076288;28;20444;-76
2022/03/26 09:31:34;;;;;;;36.87;27.07;;;;;;;;;;5075287;28;20470;-79
2022/03/26 09:34:01;;;;;;;37.93;26.03;;;;;;;;;;5081643;28;20474;-74
2022/03/26 09:36:28;;;;;;;32.43;24.13;;;;;;;;;;5082888;28;20458;-80
2022/03/26 09:38:55;;;;;;;37.50;26.10;;;;;;;;;;5075138;28;20432;-80
2022/03/26 09:41:24;;;;;;;35.10;24.53;;;;;;;;;;5065883;28;20571;-80
2022/03/26 09:43:51;;;;;;;36.03;25.47;;;;;;;;;;5070166;28;20464;-80
2022/03/26 09:46:18;;;;;;;36.53;26.40;;;;;;;;;;5074740;28;20453;-82
2022/03/26 09:48:46;;;;;;;36.70;25.70;;;;;;;;;;5074237;28;20456;-78
2022/03/26 09:53:56;;;;;;;40.77;27.20;;;;;;;;;;5057365;28;21286;-80
2022/03/26 09:56:24;;;;;;;39.30;25.80;;;;;;;;;;5058351;28;20925;-76
2022/03/26 09:58:52;;;;;;;29.80;23.20;;;;;;;;;;5071018;28;20448;-81
2022/03/26 10:01:19;;;;;;;35.27;25.70;;;;;;;;;;5053686;28;20475;-79
2022/03/26 10:04:01;;;;;;;38.60;27.90;;;;;;;;;;5070769;28;20443;-78
2022/03/26 10:06:30;;;;;;;37.50;25.30;;;;;;;;;;5056906;28;20436;-78
2022/03/26 10:08:57;;;;;;;36.57;26.20;;;;;;;;;;5058402;28;20468;-80
2022/03/26 10:11:24;;;;;;;36.80;25.57;;;;;;;;;;5062995;28;20416;-77
2022/03/26 10:13:52;;;;;;;40.80;28.20;;;;;;;;;;5082143;28;20466;-74
2022/03/26 10:16:19;;;;;;;35.37;23.73;;;;;;;;;;5093285;28;20538;-75
2022/03/26 10:18:47;;;;;;;39.00;27.67;;;;;;;;;;5093504;28;20445;-76
2022/03/26 10:21:15;;;;;;;47.53;27.00;;;;;;;;;;5075997;28;20478;-76
2022/03/26 10:23:45;;;;;;;39.70;25.67;;;;;;;;;;5094163;28;20474;-75
2022/03/26 10:26:13;;;;;;;32.23;22.23;;;;;;;;;;5085618;28;20480;-74
2022/03/26 10:28:41;;;;;;;36.30;23.60;;;;;;;;;;5053073;28;20463;-74
2022/03/26 10:34:01;;;;;;;33.40;24.67;;;;;;;;;;5073365;28;20464;-73
2022/03/26 10:36:29;;;;;;;31.00;22.80;;;;;;;;;;5080483;28;20447;-72
2022/03/26 10:38:57;;;;;;;32.70;25.53;;;;;;;;;;5080562;28;20436;-77
2022/03/26 10:41:24;;;;;;;36.47;24.87;;;;;;;;;;5072192;28;20466;-79
2022/03/26 10:44:06;;;;;;;40.67;26.37;;;;;;;;;;5070336;28;20689;-74
2022/03/26 10:46:41;;;;;;;31.20;23.37;;;;;;;;;;5052294;28;20445;-77
2022/03/26 10:49:08;;;;;;;31.40;24.13;;;;;;;;;;5060327;28;20444;-77
2022/03/26 10:51:37;;;;;;;33.40;22.83;;;;;;;;;;5079304;28;20449;-77
2022/03/26 10:54:10;;;;;;;34.10;22.77;;;;;;;;;;5059793;28;20864;-74
2022/03/26 10:56:38;;;;;;;42.43;25.30;;;;;;;;;;5088361;28;20945;-79
2022/03/26 10:59:05;;;;;;;35.50;24.60;;;;;;;;;;5093045;28;20419;-76
2022/03/26 11:01:32;;;;;;;40.33;26.87;;;;;;;;;;5093360;28;20454;-76
2022/03/26 11:04:00;;;;;;;33.40;24.40;;;;;;;;;;5093354;28;20498;-76
2022/03/26 11:06:27;;;;;;;30.20;22.30;;;;;;;;;;5081893;28;20435;-73
2022/03/26 11:09:00;;;;;;;40.03;26.23;;;;;;;;;;5054265;28;20448;-74
2022/03/26 11:11:28;;;;;;;37.37;25.73;;;;;;;;;;5037464;28;20440;-74
2022/03/26 11:13:57;;;;;;;38.97;24.67;;;;;;;;;;5060388;28;20423;-74
2022/03/26 11:16:29;;;;;;;36.83;26.40;;;;;;;;;;5080028;28;20409;-76
2022/03/26 11:19:01;;;;;;;34.23;24.60;;;;;;;;;;5074473;28;20423;-74
2022/03/26 11:21:37;;;;;;;33.30;22.83;;;;;;;;;;5072148;28;20451;-74
2022/03/26 11:24:11;;;;;;;30.43;22.20;;;;;;;;;;5060635;28;20420;-74
2022/03/26 11:26:46;;;;;;;36.23;23.73;;;;;;;;;;5052753;28;20789;-77
2022/03/26 11:29:22;;;;;;;39.20;22.60;;;;;;;;;;5034888;28;20448;-74
2022/03/26 11:31:52;;;;;;;32.43;21.93;;;;;;;;;;5053421;28;20425;-76
2022/03/26 11:34:19;;;;;;;30.23;21.40;;;;;;;;;;5054828;28;20418;-75
2022/03/26 11:36:46;;;;;;;26.87;21.40;;;;;;;;;;5060858;28;20445;-75
2022/03/26 11:39:15;;;;;;;35.20;22.00;;;;;;;;;;5061591;28;20434;-76
2022/03/26 11:41:44;;;;;;;36.30;24.60;;;;;;;;;;5083859;28;20924;-74
2022/03/26 11:44:12;;;;;;;43.93;24.53;;;;;;;;;;5068143;28;20447;-76
2022/03/26 11:52:13;;;;;;;28.50;19.57;;;;;;;;;;5070903;28;20969;-75
2022/03/26 11:54:40;;;;;;;30.42;23.65;;;;;;;;;;5052384;28;20511;-78
2022/03/26 11:57:10;;;;;;;33.63;24.43;;;;;;;;;;5053679;28;20205;-75
2022/03/26 11:59:37;;;;;;;30.50;20.80;;;;;;;;;;5060498;28;20498;-75
2022/03/26 12:02:17;;;;;;;32.13;22.07;;;;;;;;;;5078954;28;20486;-77
2022/03/26 12:04:48;;;;;;;31.20;21.50;;;;;;;;;;5075630;28;20446;-74
2022/03/26 12:07:16;;;;;;;35.47;24.83;;;;;;;;;;5071612;28;20931;-79
2022/03/26 12:09:43;;;;;;;32.30;21.83;;;;;;;;;;5071502;28;20477;-78
2022/03/26 12:12:15;;;;;;;38.47;22.20;;;;;;;;;;5071479;28;20528;-76
2022/03/26 12:14:57;;;;;;;28.23;21.53;;;;;;;;;;5048367;28;20953;-77
2022/03/26 12:17:39;;;;;;;34.20;23.40;;;;;;;;;;5054548;28;20440;-81
2022/03/26 12:20:19;;;;;;;34.90;23.10;;;;;;;;;;5050310;28;20434;-80
2022/03/26 12:22:46;;;;;;;31.00;22.57;;;;;;;;;;5061865;28;20439;-83
2022/03/26 12:25:16;;;;;;;26.83;20.30;;;;;;;;;;5078512;28;20819;-79
2022/03/26 12:27:45;;;;;;;32.13;21.50;;;;;;;;;;5084081;28;20435;-76
2022/03/26 12:30:14;;;;;;;26.73;20.07;;;;;;;;;;5091216;28;20445;-81
2022/03/26 12:32:43;;;;;;;28.47;18.77;;;;;;;;;;5073531;28;20467;-80
2022/03/26 12:35:11;;;;;;;28.20;20.00;;;;;;;;;;5047659;28;20841;-82
2022/03/26 12:37:39;;;;;;;30.47;20.13;;;;;;;;;;5046964;28;20448;-80
2022/03/26 12:40:08;;;;;;;31.63;19.43;;;;;;;;;;5064945;28;20956;-79
2022/03/26 12:42:35;;;;;;;26.30;18.40;;;;;;;;;;5073274;28;20960;-82
2022/03/26 12:45:15;;;;;;;33.83;18.77;;;;;;;;;;5055998;28;20442;-78
2022/03/26 12:47:45;;;;;;;23.53;16.00;;;;;;;;;;5078517;28;21373;-79
2022/03/26 12:50:13;;;;;;;20.60;14.03;;;;;;;;;;5082502;28;20446;-80
2022/03/26 12:52:40;;;;;;;28.83;19.13;;;;;;;;;;5091079;28;20436;-81
2022/03/26 12:55:08;;;;;;;23.40;14.37;;;;;;;;;;5072916;28;20440;-79
2022/03/26 13:00:24;;;;;;;21.40;13.80;;;;;;;;;;5090794;28;20400;-79
2022/03/26 13:03:00;;;;;;;24.07;13.63;;;;;;;;;;5054484;28;20511;-78
2022/03/26 13:05:30;;;;;;;17.30;11.33;;;;;;;;;;5055972;28;20433;-79
2022/03/26 13:07:58;;;;;;;17.10;11.00;;;;;;;;;;5056499;28;20421;-78
2022/03/26 13:10:41;;;;;;;16.10;10.80;;;;;;;;;;5071172;28;20442;-80
2022/03/26 13:13:08;;;;;;;14.73;10.80;;;;;;;;;;5051420;28;20468;-78
2022/03/26 13:15:37;;;;;;;21.33;12.30;;;;;;;;;;5066932;28;20780;-78
2022/03/26 13:18:06;;;;;;;17.30;12.07;;;;;;;;;;5048848;28;20427;-81
2022/03/26 13:20:35;;;;;;;15.37;10.60;;;;;;;;;;5067027;28;20583;-80
2022/03/26 13:23:02;;;;;;;14.53;10.20;;;;;;;;;;5046129;28;20463;-78
2022/03/26 13:25:34;;;;;;;13.70;11.10;;;;;;;;;;5030895;28;20930;-80
2022/03/26 13:28:14;;;;;;;14.40;11.00;;;;;;;;;;5052700;28;20452;-76
2022/03/26 13:30:43;;;;;;;17.33;12.50;;;;;;;;;;5073423;28;21250;-76
2022/03/26 13:33:12;;;;;;;12.60;10.17;;;;;;;;;;5071620;28;20951;-77
2022/03/26 13:35:40;;;;;;;15.60;10.30;;;;;;;;;;5067136;28;20443;-82
2022/03/26 13:38:12;;;;;;;13.60;8.83;;;;;;;;;;5066485;28;20476;-76
2022/03/26 13:40:40;;;;;;;16.20;11.13;;;;;;;;;;5066201;28;20425;-79
2022/03/26 13:43:10;;;;;;;14.67;10.80;;;;;;;;;;5049390;28;21028;-79
2022/03/26 13:45:37;;;;;;;16.00;11.27;;;;;;;;;;5067585;28;20780;-79
2022/03/26 13:48:14;;;;;;;15.03;9.77;;;;;;;;;;5050669;28;20938;-81
2022/03/26 13:50:41;;;;;;;14.73;10.20;;;;;;;;;;5069594;28;20445;-77
2022/03/26 13:53:18;;;;;;;12.23;9.10;;;;;;;;;;5075152;28;20465;-81
2022/03/26 13:55:48;;;;;;;13.00;8.17;;;;;;;;;;5075570;28;20664;-79
2022/03/26 13:58:23;;;;;;;12.73;7.80;;;;;;;;;;5069848;28;20492;-82
2022/03/26 14:00:51;;;;;;;11.40;6.80;;;;;;;;;;5087106;28;20415;-79
2022/03/26 14:03:24;;;;;;;9.20;5.50;;;;;;;;;;5070379;28;20456;-82
2022/03/26 14:05:51;;;;;;;6.80;5.50;;;;;;;;;;5089904;28;20423;-79
2022/03/26 14:08:18;;;;;;;8.67;5.47;;;;;;;;;;5081536;28;20924;-79
2022/03/26 14:10:47;;;;;;;6.00;5.40;;;;;;;;;;5075872;28;20851;-78
2022/03/26 14:13:15;;;;;;;10.03;7.07;;;;;;;;;;5076151;28;20451;-78
2022/03/26 14:15:44;;;;;;;9.63;6.27;;;;;;;;;;5081208;28;20495;-75
2022/03/26 14:18:12;;;;;;;6.60;5.43;;;;;;;;;;5083622;28;20959;-77
2022/03/26 14:20:40;;;;;;;9.30;6.00;;;;;;;;;;5093221;28;20430;-78
2022/03/26 14:23:08;;;;;;;7.07;4.83;;;;;;;;;;5093847;28;20895;-75
2022/03/26 14:25:36;;;;;;;6.50;5.80;;;;;;;;;;5093936;28;20420;-78
2022/03/26 14:28:03;;;;;;;12.90;6.13;;;;;;;;;;5094106;28;20426;-78
2022/03/26 14:30:32;;;;;;;13.10;5.97;;;;;;;;;;5083464;28;20425;-78
2022/03/26 14:33:00;;;;;;;6.77;5.47;;;;;;;;;;5074871;28;20469;-79
2022/03/26 14:35:27;;;;;;;6.73;5.80;;;;;;;;;;5057720;28;20543;-78
2022/03/26 14:37:57;;;;;;;6.13;4.73;;;;;;;;;;5080040;28;20913;-79